createdAt,value
2022-08-17T00:00:51.776Z,40.38
2022-08-17T00:03:20.282Z,31.60
2022-08-17T00:05:50.570Z,38.47
2022-08-17T00:08:19.508Z,32.67
2022-08-17T00:10:46.607Z,33.22
2022-08-17T00:13:15.851Z,39.08
2022-08-17T00:15:42.173Z,42.28
2022-08-17T00:19:00.906Z,33.67
2022-08-17T00:20:55.449Z,33.53
2022-08-17T00:23:22.523Z,32.47
2022-08-17T00:25:48.946Z,41.55
2022-08-17T00:28:16.193Z,25.50
2022-08-17T00:30:51.025Z,42.65
2022-08-17T00:33:22.140Z,27.13
2022-08-17T00:35:48.515Z,41.00
2022-08-17T00:38:14.950Z,40.40
2022-08-17T00:40:45.897Z,40.63
2022-08-17T00:43:18.917Z,38.88
2022-08-17T00:45:45.677Z,33.65
2022-08-17T00:48:26.150Z,36.15
2022-08-17T00:50:56.905Z,41.08
2022-08-17T00:53:23.855Z,36.22
2022-08-17T00:55:50.345Z,40.17
2022-08-17T00:58:16.696Z,34.95
2022-08-17T01:01:02.088Z,37.30
2022-08-17T01:03:29.568Z,41.03
2022-08-17T01:05:59.706Z,34.63
2022-08-17T01:08:27.925Z,39.50
2022-08-17T01:10:58.691Z,42.50
2022-08-17T01:13:29.076Z,39.75
2022-08-17T01:16:00.607Z,40.22
2022-08-17T01:18:27.288Z,39.15
2022-08-17T01:20:55.032Z,37.30
2022-08-17T01:23:23.547Z,35.85
2022-08-17T01:25:51.297Z,36.00
2022-08-17T01:28:52.581Z,36.83
2022-08-17T01:31:05.874Z,35.42
2022-08-17T01:33:32.380Z,28.25
2022-08-17T01:36:00.554Z,29.33
2022-08-17T01:38:31.529Z,28.75
2022-08-17T01:41:03.260Z,22.00
2022-08-17T01:43:41.485Z,20.85
2022-08-17T01:46:08.001Z,29.20
2022-08-17T01:48:35.356Z,14.68
2022-08-17T01:51:02.204Z,11.05
2022-08-17T01:53:37.850Z,13.38
2022-08-17T01:56:07.036Z,11.25
2022-08-17T01:58:34.457Z,11.23
2022-08-17T02:01:01.658Z,9.25
2022-08-17T02:03:28.742Z,6.07
2022-08-17T02:05:55.312Z,6.32
2022-08-17T02:08:37.024Z,6.65
2022-08-17T02:11:11.232Z,10.63
2022-08-17T02:13:38.141Z,7.45
2022-08-17T02:16:04.503Z,9.70
2022-08-17T02:18:30.838Z,6.60
2022-08-17T02:20:57.235Z,12.05
2022-08-17T02:23:24.663Z,12.32
2022-08-17T02:25:51.167Z,10.93
2022-08-17T02:28:18.357Z,11.38
2022-08-17T02:31:02.202Z,9.60
2022-08-17T02:33:41.555Z,9.77
2022-08-17T02:36:09.137Z,9.98
2022-08-17T02:38:36.395Z,9.48
2022-08-17T02:41:03.197Z,8.35
2022-08-17T02:43:29.823Z,7.30
2022-08-17T02:45:56.222Z,6.57
2022-08-17T02:48:30.661Z,5.95
2022-08-17T02:50:58.702Z,5.20
2022-08-17T02:53:25.742Z,4.88
2022-08-17T02:55:52.549Z,5.55
2022-08-17T02:58:34.351Z,5.30
2022-08-17T03:01:03.266Z,5.55
2022-08-17T03:03:29.677Z,6.18
2022-08-17T03:05:56.260Z,7.13
2022-08-17T03:08:23.339Z,5.13
2022-08-17T03:10:50.477Z,5.80
2022-08-17T03:13:17.410Z,5.03
2022-08-17T03:15:47.640Z,5.18
2022-08-17T03:18:18.910Z,4.03
2022-08-17T03:20:51.264Z,5.20
2022-08-17T03:23:17.678Z,4.93
2022-08-17T03:25:45.934Z,5.32
2022-08-17T03:28:12.634Z,4.47
2022-08-17T03:30:39.968Z,3.88
2022-08-17T03:33:07.493Z,4.10
2022-08-17T03:35:34.892Z,3.70
2022-08-17T03:38:01.595Z,3.50
2022-08-17T03:40:36.970Z,5.03
2022-08-17T03:43:15.451Z,4.13
2022-08-17T03:46:01.275Z,3.55
2022-08-17T03:48:46.323Z,2.90
2022-08-17T03:51:42.212Z,3.33
2022-08-17T03:54:27.847Z,3.95
2022-08-17T03:56:57.037Z,2.60
2022-08-17T03:59:23.569Z,3.25
2022-08-17T04:01:53.481Z,3.00
2022-08-17T04:04:20.881Z,3.70
2022-08-17T04:06:54.236Z,3.78
2022-08-17T04:09:20.601Z,3.47
2022-08-17T04:11:47.028Z,2.75
2022-08-17T04:14:13.492Z,3.25
2022-08-17T04:16:40.207Z,2.72
2022-08-17T04:19:06.769Z,3.97
2022-08-17T04:21:34.274Z,3.17
2022-08-17T04:24:00.809Z,4.50
2022-08-17T04:26:53.895Z,5.80
2022-08-17T04:29:14.737Z,5.53
2022-08-17T04:31:41.100Z,4.55
2022-08-17T04:34:07.632Z,6.18
2022-08-17T04:36:34.020Z,5.03
2022-08-17T04:39:00.502Z,5.53
2022-08-17T04:41:45.635Z,5.32
2022-08-17T04:44:12.388Z,2.83
2022-08-17T04:46:38.873Z,5.20
2022-08-17T04:49:07.042Z,3.30
2022-08-17T04:51:38.740Z,2.97
2022-08-17T04:54:17.873Z,5.70
2022-08-17T04:56:44.653Z,5.78
2022-08-17T04:59:16.113Z,5.88
2022-08-17T05:01:43.986Z,5.68
2022-08-17T05:04:34.603Z,5.80
2022-08-17T05:06:58.673Z,4.32
2022-08-17T05:09:25.048Z,4.65
2022-08-17T05:11:51.450Z,3.95
2022-08-17T05:14:17.834Z,4.75
2022-08-17T05:16:45.782Z,6.25
2022-08-17T05:19:12.111Z,5.32
2022-08-17T05:21:38.497Z,6.65
2022-08-17T05:24:05.978Z,7.97
2022-08-17T05:26:51.260Z,7.35
2022-08-17T05:29:18.782Z,8.75
2022-08-17T05:31:45.133Z,6.57
2022-08-17T05:34:11.599Z,9.57
2022-08-17T05:36:43.994Z,5.35
2022-08-17T05:39:16.931Z,6.82
2022-08-17T05:41:44.213Z,6.13
2022-08-17T05:44:10.588Z,8.55
2022-08-17T05:46:39.826Z,9.55
2022-08-17T05:49:11.140Z,9.00
2022-08-17T05:51:40.262Z,8.95
2022-08-17T05:54:23.847Z,9.02
2022-08-17T05:56:50.159Z,8.93
2022-08-17T05:59:22.644Z,8.65
2022-08-17T06:02:07.445Z,11.25
2022-08-17T06:04:46.992Z,9.07
2022-08-17T06:07:39.603Z,8.55
2022-08-17T06:10:12.466Z,9.07
2022-08-17T06:12:43.697Z,8.43
2022-08-17T06:15:26.340Z,9.32
2022-08-17T06:17:55.065Z,10.10
2022-08-17T06:20:22.328Z,8.27
2022-08-17T06:22:50.830Z,11.13
2022-08-17T06:25:18.832Z,11.73
2022-08-17T06:27:56.575Z,4.30
2022-08-17T06:30:27.543Z,9.68
2022-08-17T06:32:55.674Z,10.18
2022-08-17T06:35:32.011Z,7.10
2022-08-17T06:38:09.728Z,13.30
2022-08-17T06:40:58.888Z,13.45
2022-08-17T06:43:28.034Z,11.77
2022-08-17T06:46:01.697Z,9.70
2022-08-17T06:48:50.021Z,10.05
2022-08-17T06:53:48.294Z,12.23
2022-08-17T06:56:21.932Z,12.07
2022-08-17T06:58:49.508Z,12.90
2022-08-17T07:01:19.387Z,10.52
2022-08-17T07:03:55.458Z,10.57
2022-08-17T07:06:27.955Z,11.38
2022-08-17T07:09:21.541Z,9.43
2022-08-17T07:11:50.874Z,10.48
2022-08-17T07:14:32.424Z,7.82
2022-08-17T07:17:01.290Z,7.88
2022-08-17T07:19:31.519Z,7.80
2022-08-17T07:22:07.387Z,7.15
2022-08-17T07:24:45.071Z,5.70
2022-08-17T07:27:31.309Z,9.15
2022-08-17T07:30:00.915Z,7.28
2022-08-17T07:32:31.755Z,4.68
2022-08-17T07:35:05.101Z,9.52
2022-08-17T07:37:33.304Z,9.52
2022-08-17T07:40:16.309Z,9.60
2022-08-17T07:42:45.268Z,6.55
2022-08-17T07:45:34.248Z,7.70
2022-08-17T07:48:19.113Z,7.07
2022-08-17T07:50:49.700Z,8.45
2022-08-17T07:53:18.610Z,8.05
2022-08-17T07:55:45.421Z,8.88
2022-08-17T07:58:19.373Z,6.80
2022-08-17T08:00:46.537Z,5.07
2022-08-17T08:03:15.560Z,7.80
2022-08-17T08:05:51.000Z,7.05
2022-08-17T08:08:28.245Z,9.27
2022-08-17T08:11:00.202Z,9.10
2022-08-17T08:13:28.719Z,7.78
2022-08-17T08:16:19.893Z,8.65
2022-08-17T08:18:55.915Z,6.85
2022-08-17T08:21:29.149Z,6.40
2022-08-17T08:23:59.594Z,7.82
2022-08-17T08:26:32.419Z,6.72
2022-08-17T08:29:00.441Z,6.25
2022-08-17T08:31:26.759Z,6.97
2022-08-17T08:34:53.395Z,6.70
2022-08-17T08:37:17.135Z,7.50
2022-08-17T08:39:57.518Z,7.70
2022-08-17T08:42:28.682Z,5.00
2022-08-17T08:45:10.311Z,6.20
2022-08-17T08:47:36.650Z,5.50
2022-08-17T08:50:09.070Z,4.82
2022-08-17T08:53:01.295Z,6.32
2022-08-17T08:55:37.627Z,6.43
2022-08-17T08:58:32.288Z,5.32
2022-08-17T09:01:08.781Z,3.40
2022-08-17T09:04:11.800Z,6.65
2022-08-17T09:06:46.781Z,6.60
2022-08-17T09:09:13.147Z,6.35
2022-08-17T09:12:03.460Z,5.63
2022-08-17T09:14:46.411Z,6.28
2022-08-17T09:17:16.516Z,8.20
2022-08-17T09:19:48.301Z,4.13
2022-08-17T09:22:33.291Z,6.78
2022-08-17T09:25:18.327Z,6.80
2022-08-17T09:27:53.669Z,6.63
2022-08-17T09:30:20.548Z,4.70
2022-08-17T09:32:55.087Z,4.32
2022-08-17T09:35:23.856Z,3.67
2022-08-17T09:37:50.235Z,4.60
2022-08-17T09:40:22.681Z,6.40
2022-08-17T09:42:55.150Z,5.90
2022-08-17T09:45:24.423Z,6.32
2022-08-17T09:48:11.040Z,6.35
2022-08-17T09:51:03.894Z,6.00
2022-08-17T09:53:32.254Z,6.20
2022-08-17T09:55:58.602Z,5.70
2022-08-17T09:58:56.346Z,5.28
2022-08-17T10:01:31.751Z,5.00
2022-08-17T10:04:10.719Z,3.85
2022-08-17T10:06:47.174Z,4.55
2022-08-17T10:09:22.176Z,4.32
2022-08-17T10:12:10.929Z,4.13
2022-08-17T10:14:46.339Z,3.90
2022-08-17T10:17:20.436Z,4.55
2022-08-17T10:19:52.494Z,4.85
2022-08-17T10:22:44.471Z,4.70
2022-08-17T10:25:53.679Z,5.18
2022-08-17T10:28:25.870Z,4.70
2022-08-17T10:31:16.791Z,5.30
2022-08-17T10:33:53.378Z,5.20
2022-08-17T10:36:26.282Z,3.53
2022-08-17T10:39:25.157Z,4.78
2022-08-17T10:41:54.010Z,5.93
2022-08-17T10:44:38.454Z,3.72
2022-08-17T10:47:15.413Z,4.97
2022-08-17T10:49:49.456Z,5.60
2022-08-17T10:52:27.864Z,5.80
2022-08-17T10:54:58.440Z,4.28
2022-08-17T10:57:34.339Z,4.10
2022-08-17T11:00:00.724Z,3.90
2022-08-17T11:02:41.295Z,5.97
2022-08-17T11:05:20.615Z,5.93
2022-08-17T11:08:07.241Z,5.95
2022-08-17T11:10:49.905Z,7.43
2022-08-17T11:13:29.626Z,7.60
2022-08-17T11:15:59.115Z,6.15
2022-08-17T11:18:45.587Z,7.65
2022-08-17T11:21:30.577Z,7.57
2022-08-17T11:24:10.360Z,5.18
2022-08-17T11:26:38.495Z,4.43
2022-08-17T11:29:16.805Z,6.57
2022-08-17T11:31:46.529Z,8.50
2022-08-17T11:34:23.078Z,8.65
2022-08-17T11:37:02.056Z,8.77
2022-08-17T11:39:31.467Z,9.98
2022-08-17T11:41:57.815Z,9.52
2022-08-17T11:44:24.173Z,11.10
2022-08-17T11:47:13.113Z,11.05
2022-08-17T11:49:58.162Z,11.75
2022-08-17T11:53:00.386Z,12.67
2022-08-17T11:55:36.403Z,11.32
2022-08-17T11:58:24.694Z,11.02
2022-08-17T12:00:55.625Z,10.07
2022-08-17T12:03:26.361Z,11.50
2022-08-17T12:06:02.366Z,7.90
2022-08-17T12:08:32.600Z,12.35
2022-08-17T12:11:02.011Z,12.18
2022-08-17T12:13:30.534Z,11.55
2022-08-17T12:16:05.270Z,7.10
2022-08-17T12:18:35.451Z,11.40
2022-08-17T12:21:15.439Z,12.23
2022-08-17T12:24:06.775Z,10.18
2022-08-17T12:26:34.530Z,11.40
2022-08-17T12:29:02.124Z,11.65
2022-08-17T12:31:36.457Z,10.13
2022-08-17T12:34:04.633Z,11.20
2022-08-17T12:36:32.560Z,7.10
2022-08-17T12:39:12.860Z,11.15
2022-08-17T12:41:41.463Z,8.68
2022-08-17T12:44:11.193Z,8.10
2022-08-17T12:46:53.136Z,6.80
2022-08-17T12:49:26.409Z,5.95
2022-08-17T12:51:57.185Z,8.10
2022-08-17T12:54:31.382Z,9.27
2022-08-17T12:57:02.041Z,9.90
2022-08-17T12:59:30.082Z,8.20
2022-08-17T13:01:57.087Z,8.30
2022-08-17T13:04:24.088Z,7.50
2022-08-17T13:06:59.816Z,9.45
2022-08-17T13:09:35.783Z,9.25
2022-08-17T13:12:07.391Z,7.82
2022-08-17T13:14:34.147Z,7.78
2022-08-17T13:17:01.708Z,6.43
2022-08-17T13:19:40.185Z,7.22
2022-08-17T13:22:09.984Z,7.95
2022-08-17T13:24:37.793Z,7.07
2022-08-17T13:27:07.804Z,6.45
2022-08-17T13:29:37.045Z,7.97
2022-08-17T13:32:13.063Z,8.18
2022-08-17T13:35:15.085Z,9.10
2022-08-17T13:37:34.388Z,10.43
2022-08-17T13:40:09.884Z,7.65
2022-08-17T13:42:50.425Z,9.45
2022-08-17T13:45:35.307Z,10.57
2022-08-17T13:50:31.943Z,9.60
2022-08-17T13:52:58.527Z,12.63
2022-08-17T13:55:26.376Z,11.65
2022-08-17T13:58:06.552Z,12.00
2022-08-17T14:00:35.449Z,9.27
2022-08-17T14:03:03.070Z,10.02
2022-08-17T14:05:30.545Z,10.68
2022-08-17T14:08:02.542Z,9.93
2022-08-17T14:10:34.331Z,9.70
2022-08-17T14:13:00.713Z,11.18
2022-08-17T14:15:54.989Z,8.35
2022-08-17T14:18:13.450Z,8.18
2022-08-17T14:20:39.877Z,10.05
2022-08-17T14:23:08.251Z,9.93
2022-08-17T14:25:34.581Z,10.55
2022-08-17T14:28:01.444Z,9.05
2022-08-17T14:30:28.870Z,9.52
2022-08-17T14:32:57.982Z,9.43
2022-08-17T14:35:24.614Z,12.27
2022-08-17T14:37:51.707Z,10.73
2022-08-17T14:40:20.798Z,11.13
2022-08-17T14:42:48.035Z,9.00
2022-08-17T14:45:30.471Z,11.32
2022-08-17T14:47:59.546Z,11.33
2022-08-17T14:50:27.142Z,10.90
2022-08-17T14:52:56.283Z,10.68
2022-08-17T14:55:24.641Z,11.60
2022-08-17T14:57:51.186Z,10.27
2022-08-17T15:00:17.786Z,11.75
2022-08-17T15:02:46.127Z,9.50
2022-08-17T15:05:13.747Z,11.82
2022-08-17T15:07:40.473Z,11.13
2022-08-17T15:10:08.177Z,10.73
2022-08-17T15:12:34.804Z,9.15
2022-08-17T15:15:05.548Z,12.73
2022-08-17T15:17:44.782Z,7.80
2022-08-17T15:20:20.951Z,7.75
2022-08-17T15:22:54.972Z,8.82
2022-08-17T15:25:22.386Z,6.05
2022-08-17T15:27:49.030Z,5.85
2022-08-17T15:30:15.727Z,6.45
2022-08-17T15:32:51.022Z,8.35
2022-08-17T15:35:27.209Z,7.35
2022-08-17T15:37:54.953Z,8.25
2022-08-17T15:40:21.295Z,7.35
2022-08-17T15:42:47.676Z,6.95
2022-08-17T15:45:16.492Z,7.13
2022-08-17T15:47:43.278Z,6.00
2022-08-17T15:50:10.202Z,6.20
2022-08-17T15:52:40.115Z,6.63
2022-08-17T15:55:08.876Z,6.30
2022-08-17T15:57:36.028Z,5.32
2022-08-17T16:00:03.533Z,7.22
2022-08-17T16:03:45.352Z,6.35
2022-08-17T16:05:24.880Z,7.30
2022-08-17T16:07:52.063Z,6.32
2022-08-17T16:10:19.389Z,7.90
2022-08-17T16:12:46.982Z,7.43
2022-08-17T16:15:13.825Z,5.30
2022-08-17T16:17:41.467Z,7.00
2022-08-17T16:20:20.302Z,5.63
2022-08-17T16:22:48.045Z,5.45
2022-08-17T16:25:18.029Z,7.00
2022-08-17T16:27:44.633Z,6.38
2022-08-17T16:30:16.937Z,5.53
2022-08-17T16:32:43.903Z,5.18
2022-08-17T16:35:11.831Z,4.72
2022-08-17T16:37:40.253Z,5.05
2022-08-17T16:40:11.551Z,7.05
2022-08-17T16:42:39.505Z,6.82
2022-08-17T16:45:18.383Z,6.50
2022-08-17T16:47:45.352Z,6.28
2022-08-17T16:50:13.450Z,3.90
2022-08-17T16:52:40.707Z,4.13
2022-08-17T16:55:08.833Z,6.47
2022-08-17T16:57:37.350Z,6.32
2022-08-17T17:00:15.031Z,7.00
2022-08-17T17:02:43.164Z,7.70
2022-08-17T17:05:16.428Z,6.95
2022-08-17T17:08:01.025Z,7.82
2022-08-17T17:10:38.767Z,6.55
2022-08-17T17:13:08.521Z,6.85
2022-08-17T17:16:01.179Z,4.82
2022-08-17T17:18:40.778Z,5.47
2022-08-17T17:21:11.240Z,6.18
2022-08-17T17:23:45.177Z,4.07
2022-08-17T17:26:16.428Z,6.55
2022-08-17T17:28:51.842Z,4.93
2022-08-17T17:31:19.981Z,5.40
2022-08-17T17:33:49.209Z,5.93
2022-08-17T17:36:33.769Z,5.75
2022-08-17T17:39:04.133Z,5.60
2022-08-17T17:41:35.773Z,5.80
2022-08-17T17:44:07.516Z,6.18
2022-08-17T17:46:37.908Z,6.10
2022-08-17T17:49:05.882Z,6.00
2022-08-17T17:52:06.888Z,5.47
2022-08-17T17:54:18.543Z,5.78
2022-08-17T17:57:02.030Z,5.45
2022-08-17T17:59:28.357Z,4.30
2022-08-17T18:01:54.747Z,5.35
2022-08-17T18:04:21.373Z,5.53
2022-08-17T18:06:53.701Z,4.70
2022-08-17T18:09:33.954Z,4.93
2022-08-17T18:12:20.984Z,5.00
2022-08-17T18:15:03.526Z,4.10
2022-08-17T18:17:31.043Z,4.57
2022-08-17T18:19:57.371Z,4.22
2022-08-17T18:22:24.349Z,4.80
2022-08-17T18:24:56.345Z,4.72
2022-08-17T18:27:28.614Z,4.28
2022-08-17T18:29:56.498Z,4.22
2022-08-17T18:32:25.768Z,3.83
2022-08-17T18:34:57.440Z,3.83
2022-08-17T18:37:30.772Z,3.10
2022-08-17T18:39:57.272Z,4.05
2022-08-17T18:42:27.971Z,4.22
2022-08-17T18:44:55.445Z,4.35
2022-08-17T18:47:26.236Z,3.47
2022-08-17T18:49:57.438Z,3.95
2022-08-17T18:52:27.739Z,4.22
2022-08-17T18:55:00.171Z,4.10
2022-08-17T18:57:34.912Z,3.85
2022-08-17T19:00:01.895Z,2.97
2022-08-17T19:02:44.707Z,3.42
2022-08-17T19:05:24.958Z,4.15
2022-08-17T19:07:51.501Z,4.10
2022-08-17T19:10:17.989Z,4.07
2022-08-17T19:12:51.267Z,2.85
2022-08-17T19:15:22.820Z,3.28
2022-08-17T19:17:55.346Z,3.95
2022-08-17T19:20:24.041Z,3.40
2022-08-17T19:23:02.224Z,3.47
2022-08-17T19:25:30.685Z,3.88
2022-08-17T19:28:02.985Z,4.03
2022-08-17T19:30:29.970Z,3.90
2022-08-17T19:32:58.263Z,3.85
2022-08-17T19:35:26.636Z,2.90
2022-08-17T19:38:05.300Z,3.40
2022-08-17T19:40:53.639Z,3.25
2022-08-17T19:43:38.963Z,3.60
2022-08-17T19:46:15.700Z,3.20
2022-08-17T19:48:56.281Z,3.67
2022-08-17T19:51:28.747Z,3.33
2022-08-17T19:54:05.985Z,3.33
2022-08-17T19:56:48.353Z,2.90
2022-08-17T19:59:35.905Z,3.85
2022-08-17T20:02:22.988Z,3.63
2022-08-17T20:04:50.066Z,2.63
2022-08-17T20:07:23.602Z,3.50
2022-08-17T20:09:53.241Z,3.72
2022-08-17T20:12:21.076Z,3.72
2022-08-17T20:14:57.187Z,3.25
2022-08-17T20:17:31.248Z,3.65
2022-08-17T20:20:19.910Z,2.78
2022-08-17T20:22:52.693Z,3.17
2022-08-17T20:25:35.039Z,2.65
2022-08-17T20:28:06.402Z,2.40
2022-08-17T20:30:37.980Z,3.08
2022-08-17T20:33:05.527Z,2.38
2022-08-17T20:35:33.324Z,1.50
2022-08-17T20:38:11.004Z,2.50
2022-08-17T20:40:39.548Z,2.50
2022-08-17T20:43:25.119Z,1.70
2022-08-17T20:46:01.095Z,2.58
2022-08-17T20:48:37.984Z,3.03
2022-08-17T20:51:21.471Z,1.73
2022-08-17T20:53:47.775Z,2.90
2022-08-17T20:56:32.706Z,2.60
2022-08-17T20:59:00.573Z,3.58
2022-08-17T21:01:39.994Z,3.10
2022-08-17T21:04:08.098Z,3.50
2022-08-17T21:06:34.489Z,2.95
2022-08-17T21:09:12.955Z,2.75
2022-08-17T21:12:03.755Z,3.15
2022-08-17T21:14:40.812Z,2.97
2022-08-17T21:17:17.712Z,3.33
2022-08-17T21:20:15.599Z,2.60
2022-08-17T21:23:00.976Z,2.40
2022-08-17T21:25:42.946Z,2.85
2022-08-17T21:28:29.952Z,2.95
2022-08-17T21:31:09.199Z,3.60
2022-08-17T21:33:39.539Z,2.85
2022-08-17T21:36:11.938Z,2.30
2022-08-17T21:38:42.038Z,2.17
2022-08-17T21:41:18.803Z,3.55
2022-08-17T21:43:47.328Z,2.97
2022-08-17T21:46:23.265Z,3.67
2022-08-17T21:48:54.427Z,1.83
2022-08-17T21:51:23.479Z,3.10
2022-08-17T21:53:57.325Z,3.40
2022-08-17T21:56:23.633Z,3.47
2022-08-17T21:58:54.468Z,4.65
2022-08-17T22:01:25.999Z,3.38
2022-08-17T22:04:04.051Z,3.38
2022-08-17T22:06:35.088Z,2.80
2022-08-17T22:09:04.367Z,2.85
2022-08-17T22:11:31.558Z,3.00
2022-08-17T22:14:05.497Z,3.10
2022-08-17T22:16:32.534Z,3.20
2022-08-17T22:18:59.163Z,2.70
2022-08-17T22:21:26.047Z,2.55
2022-08-17T22:24:06.135Z,3.03
2022-08-17T22:26:51.274Z,3.35
2022-08-17T22:29:37.444Z,3.28
2022-08-17T22:32:03.824Z,2.60
2022-08-17T22:34:30.154Z,2.90
2022-08-17T22:37:15.169Z,3.58
2022-08-17T22:39:41.727Z,3.08
2022-08-17T22:42:13.509Z,3.30
2022-08-17T22:44:48.115Z,4.53
2022-08-17T22:47:14.434Z,2.53
2022-08-17T22:49:52.974Z,4.15
2022-08-17T22:52:55.932Z,2.80
2022-08-17T22:55:41.649Z,4.15
2022-08-17T22:58:59.062Z,4.63
2022-08-17T23:01:28.291Z,3.78
2022-08-17T23:03:56.872Z,3.58
2022-08-17T23:06:24.214Z,4.05
2022-08-17T23:08:54.997Z,3.08
2022-08-17T23:11:36.711Z,3.50
2022-08-17T23:14:13.687Z,3.30
2022-08-17T23:16:43.015Z,3.70
2022-08-17T23:19:09.998Z,4.10
2022-08-17T23:21:37.291Z,3.33
2022-08-17T23:24:08.808Z,3.45
2022-08-17T23:26:37.991Z,3.30
2022-08-17T23:29:07.238Z,3.20
2022-08-17T23:31:37.079Z,3.20
2022-08-17T23:34:05.182Z,2.30
2022-08-17T23:36:35.418Z,2.85
2022-08-17T23:39:01.768Z,2.17
2022-08-17T23:41:31.537Z,2.00
2022-08-17T23:43:58.532Z,2.00
2022-08-17T23:46:25.127Z,3.08
2022-08-17T23:48:54.949Z,2.10
2022-08-17T23:51:23.459Z,2.60
2022-08-17T23:53:50.837Z,2.25
2022-08-17T23:56:24.074Z,3.10
2022-08-17T23:58:51.471Z,1.80
